sensor_id;sensor_type;location;lat;lon;timestamp;pressure;altitude;pressure_sealevel;temperature;humidity
4528;BME280;62320;51.520;6.818;2023-04-22T00:07:31;100399.56;;;10.75;87.16
4528;BME280;62320;51.520;6.818;2023-04-22T00:17:33;100385.13;;;10.38;92.42
4528;BME280;62320;51.520;6.818;2023-04-22T00:27:34;100379.22;;;10.20;93.44
4528;BME280;62320;51.520;6.818;2023-04-22T00:37:36;100378.41;;;9.95;94.30
4528;BME280;62320;51.520;6.818;2023-04-22T00:47:37;100370.66;;;9.93;92.04
4528;BME280;62320;51.520;6.818;2023-04-22T00:57:39;100368.97;;;9.88;92.34
4528;BME280;62320;51.520;6.818;2023-04-22T01:07:41;100367.31;;;9.67;93.66
4528;BME280;62320;51.520;6.818;2023-04-22T01:17:43;100364.66;;;9.88;90.41
4528;BME280;62320;51.520;6.818;2023-04-22T01:27:45;100368.97;;;9.86;86.44
4528;BME280;62320;51.520;6.818;2023-04-22T01:37:47;100371.56;;;9.85;88.11
4528;BME280;62320;51.520;6.818;2023-04-22T01:47:48;100366.31;;;10.04;89.74
4528;BME280;62320;51.520;6.818;2023-04-22T01:57:50;100362.81;;;10.21;90.36
4528;BME280;62320;51.520;6.818;2023-04-22T02:07:53;100364.59;;;10.13;90.63
4528;BME280;62320;51.520;6.818;2023-04-22T02:17:54;100366.34;;;10.03;94.86
4528;BME280;62320;51.520;6.818;2023-04-22T02:27:56;100359.44;;;10.00;89.95
4528;BME280;62320;51.520;6.818;2023-04-22T02:37:57;100350.00;;;9.96;94.65
4528;BME280;62320;51.520;6.818;2023-04-22T02:47:59;100345.72;;;9.92;95.90
4528;BME280;62320;51.520;6.818;2023-04-22T02:58:00;100329.34;;;9.96;89.67
4528;BME280;62320;51.520;6.818;2023-04-22T03:08:02;100325.03;;;9.98;94.12
4528;BME280;62320;51.520;6.818;2023-04-22T03:18:03;100313.03;;;9.90;92.93
4528;BME280;62320;51.520;6.818;2023-04-22T03:28:05;100300.03;;;10.00;89.90
4528;BME280;62320;51.520;6.818;2023-04-22T03:38:06;100299.22;;;9.97;90.19
4528;BME280;62320;51.520;6.818;2023-04-22T03:48:08;100287.19;;;9.94;89.79
4528;BME280;62320;51.520;6.818;2023-04-22T03:58:10;100285.44;;;9.96;92.98
4528;BME280;62320;51.520;6.818;2023-04-22T04:08:11;100286.28;;;9.98;89.74
4528;BME280;62320;51.520;6.818;2023-04-22T04:18:13;100280.16;;;10.21;91.08
4528;BME280;62320;51.520;6.818;2023-04-22T04:28:15;100281.91;;;10.10;93.29
4528;BME280;62320;51.520;6.818;2023-04-22T04:38:18;100262.13;;;10.12;91.08
4528;BME280;62320;51.520;6.818;2023-04-22T04:48:19;100254.38;;;10.07;91.01
4528;BME280;62320;51.520;6.818;2023-04-22T04:58:25;100254.41;;;10.05;93.86
4528;BME280;62320;51.520;6.818;2023-04-22T05:08:27;100256.09;;;10.14;90.73
4528;BME280;62320;51.520;6.818;2023-04-22T05:18:28;100238.75;;;10.27;91.23
4528;BME280;62320;51.520;6.818;2023-04-22T05:28:30;100251.69;;;10.27;92.44
4528;BME280;62320;51.520;6.818;2023-04-22T05:38:31;100251.66;;;10.30;91.50
4528;BME280;62320;51.520;6.818;2023-04-22T05:48:32;100250.75;;;10.38;91.69
4528;BME280;62320;51.520;6.818;2023-04-22T05:58:34;100237.75;;;10.46;91.67
4528;BME280;62320;51.520;6.818;2023-04-22T06:08:35;100249.75;;;10.57;92.41
4528;BME280;62320;51.520;6.818;2023-04-22T06:18:37;100245.22;;;10.81;95.26
4528;BME280;62320;51.520;6.818;2023-04-22T06:28:38;100259.81;;;10.86;90.95
4528;BME280;62320;51.520;6.818;2023-04-22T06:38:40;100247.59;;;11.03;90.54
4528;BME280;62320;51.520;6.818;2023-04-22T06:48:42;100241.22;;;11.31;92.13
4528;BME280;62320;51.520;6.818;2023-04-22T06:58:43;100242.44;;;11.75;92.76
4528;BME280;62320;51.520;6.818;2023-04-22T07:08:44;100222.72;;;12.77;95.44
4528;BME280;62320;51.520;6.818;2023-04-22T07:18:47;100231.63;;;13.56;96.46
4528;BME280;62320;51.520;6.818;2023-04-22T07:28:49;100217.94;;;14.24;93.47
4528;BME280;62320;51.520;6.818;2023-04-22T07:38:51;100215.44;;;14.90;89.43
4528;BME280;62320;51.520;6.818;2023-04-22T07:48:52;100206.88;;;15.50;82.27
4528;BME280;62320;51.520;6.818;2023-04-22T07:58:54;100201.78;;;15.75;81.32
4528;BME280;62320;51.520;6.818;2023-04-22T08:08:55;100189.47;;;16.07;80.33
4528;BME280;62320;51.520;6.818;2023-04-22T08:18:56;100172.72;;;16.40;76.30
4528;BME280;62320;51.520;6.818;2023-04-22T08:28:59;100195.00;;;16.77;74.03
4528;BME280;62320;51.520;6.818;2023-04-22T08:39:01;100184.50;;;17.03;75.05
4528;BME280;62320;51.520;6.818;2023-04-22T08:49:03;100161.00;;;17.51;71.37
4528;BME280;62320;51.520;6.818;2023-04-22T08:59:04;100161.09;;;17.71;70.25
4528;BME280;62320;51.520;6.818;2023-04-22T09:09:06;100148.19;;;18.10;68.02
4528;BME280;62320;51.520;6.818;2023-04-22T09:19:11;100138.84;;;18.24;63.37
4528;BME280;62320;51.520;6.818;2023-04-22T09:29:14;100153.38;;;18.53;63.57
4528;BME280;62320;51.520;6.818;2023-04-22T09:39:16;100149.59;;;18.60;64.47
4528;BME280;62320;51.520;6.818;2023-04-22T09:49:19;100143.78;;;18.74;62.74
4528;BME280;62320;51.520;6.818;2023-04-22T09:59:23;100127.25;;;18.92;63.16
4528;BME280;62320;51.520;6.818;2023-04-22T10:09:24;100124.38;;;19.16;62.15
4528;BME280;62320;51.520;6.818;2023-04-22T10:19:27;100119.19;;;19.35;62.12
4528;BME280;62320;51.520;6.818;2023-04-22T10:29:37;100113.72;;;19.40;63.21
4528;BME280;62320;51.520;6.818;2023-04-22T10:39:40;100124.69;;;19.48;61.05
4528;BME280;62320;51.520;6.818;2023-04-22T10:49:43;100115.19;;;19.64;60.78
4528;BME280;62320;51.520;6.818;2023-04-22T10:59:53;100107.19;;;19.67;59.59
4528;BME280;62320;51.520;6.818;2023-04-22T11:20:08;100105.97;;;20.27;63.11
4528;BME280;62320;51.520;6.818;2023-04-22T11:40:20;100108.09;;;20.87;59.04
4528;BME280;62320;51.520;6.818;2023-04-22T11:50:33;100093.16;;;20.88;58.33
4528;BME280;62320;51.520;6.818;2023-04-22T12:20:45;100092.53;;;21.17;57.63
4528;BME280;62320;51.520;6.818;2023-04-22T12:30:47;100105.31;;;21.07;56.49
4528;BME280;62320;51.520;6.818;2023-04-22T12:40:49;100105.47;;;21.04;58.76
4528;BME280;62320;51.520;6.818;2023-04-22T12:50:51;100091.41;;;21.21;57.93
4528;BME280;62320;51.520;6.818;2023-04-22T13:00:52;100086.41;;;21.32;57.02
4528;BME280;62320;51.520;6.818;2023-04-22T13:10:54;100081.00;;;21.35;58.97
4528;BME280;62320;51.520;6.818;2023-04-22T13:20:55;100087.69;;;21.56;58.55
4528;BME280;62320;51.520;6.818;2023-04-22T13:30:57;100079.44;;;21.31;58.33
4528;BME280;62320;51.520;6.818;2023-04-22T13:40:59;100097.28;;;21.26;61.21
4528;BME280;62320;51.520;6.818;2023-04-22T13:51:03;100133.44;;;20.88;66.15
4528;BME280;62320;51.520;6.818;2023-04-22T14:01:06;100106.44;;;20.52;72.32
4528;BME280;62320;51.520;6.818;2023-04-22T14:11:08;100107.84;;;20.25;73.72
4528;BME280;62320;51.520;6.818;2023-04-22T14:21:10;100126.69;;;19.97;72.88
4528;BME280;62320;51.520;6.818;2023-04-22T14:31:12;100141.09;;;19.88;73.30
4528;BME280;62320;51.520;6.818;2023-04-22T14:41:15;100159.34;;;19.73;78.71
4528;BME280;62320;51.520;6.818;2023-04-22T14:51:17;100173.22;;;19.38;82.95
4528;BME280;62320;51.520;6.818;2023-04-22T15:01:18;100152.91;;;19.22;82.78
4528;BME280;62320;51.520;6.818;2023-04-22T15:11:21;100151.25;;;19.01;79.83
4528;BME280;62320;51.520;6.818;2023-04-22T15:21:23;100157.19;;;18.86;79.97
4528;BME280;62320;51.520;6.818;2023-04-22T15:31:24;100156.91;;;18.72;79.77
4528;BME280;62320;51.520;6.818;2023-04-22T15:41:26;100157.19;;;18.66;78.75
4528;BME280;62320;51.520;6.818;2023-04-22T15:51:28;100152.47;;;18.54;80.98
4528;BME280;62320;51.520;6.818;2023-04-22T16:01:30;100134.69;;;18.40;81.35
4528;BME280;62320;51.520;6.818;2023-04-22T16:11:31;100144.63;;;18.32;85.10
4528;BME280;62320;51.520;6.818;2023-04-22T16:21:33;100136.41;;;18.20;83.74
4528;BME280;62320;51.520;6.818;2023-04-22T16:31:34;100135.16;;;18.08;83.84
4528;BME280;62320;51.520;6.818;2023-04-22T16:41:38;100157.94;;;17.85;89.50
4528;BME280;62320;51.520;6.818;2023-04-22T16:51:40;100168.16;;;17.67;88.54
4528;BME280;62320;51.520;6.818;2023-04-22T17:01:41;100175.34;;;17.39;90.54
4528;BME280;62320;51.520;6.818;2023-04-22T17:11:43;100176.91;;;17.20;92.64
4528;BME280;62320;51.520;6.818;2023-04-22T17:21:44;100186.69;;;16.90;96.15
4528;BME280;62320;51.520;6.818;2023-04-22T17:31:47;100175.19;;;16.71;97.14
4528;BME280;62320;51.520;6.818;2023-04-22T17:41:48;100182.63;;;16.57;96.33
4528;BME280;62320;51.520;6.818;2023-04-22T17:51:50;100175.03;;;16.51;97.47
4528;BME280;62320;51.520;6.818;2023-04-22T18:01:51;100188.81;;;16.27;96.12
4528;BME280;62320;51.520;6.818;2023-04-22T18:11:56;100188.81;;;16.27;92.72
4528;BME280;62320;51.520;6.818;2023-04-22T18:21:59;100188.97;;;16.22;92.01
4528;BME280;62320;51.520;6.818;2023-04-22T18:32:01;100194.06;;;15.99;97.21
4528;BME280;62320;51.520;6.818;2023-04-22T18:42:03;100207.38;;;15.90;95.16
4528;BME280;62320;51.520;6.818;2023-04-22T18:52:04;100215.75;;;15.72;100.00
4528;BME280;62320;51.520;6.818;2023-04-22T19:02:11;100215.75;;;15.72;99.33
4528;BME280;62320;51.520;6.818;2023-04-22T19:12:13;100254.31;;;15.90;92.44
4528;BME280;62320;51.520;6.818;2023-04-22T19:22:17;100267.31;;;15.62;91.67
4528;BME280;62320;51.520;6.818;2023-04-22T19:32:19;100272.13;;;15.47;92.78
4528;BME280;62320;51.520;6.818;2023-04-22T19:42:21;100275.28;;;15.24;92.61
4528;BME280;62320;51.520;6.818;2023-04-22T19:52:23;100263.59;;;15.08;93.59
4528;BME280;62320;51.520;6.818;2023-04-22T20:02:25;100271.09;;;14.86;92.79
4528;BME280;62320;51.520;6.818;2023-04-22T20:12:27;100281.59;;;14.82;91.16
4528;BME280;62320;51.520;6.818;2023-04-22T20:22:29;100283.41;;;14.80;93.72
4528;BME280;62320;51.520;6.818;2023-04-22T20:32:32;100283.03;;;14.60;94.15
4528;BME280;62320;51.520;6.818;2023-04-22T20:42:34;100299.00;;;14.45;93.67
4528;BME280;62320;51.520;6.818;2023-04-22T20:52:37;100304.66;;;14.22;93.24
4528;BME280;62320;51.520;6.818;2023-04-22T21:02:40;100315.66;;;13.95;92.14
4528;BME280;62320;51.520;6.818;2023-04-22T21:12:42;100325.25;;;13.93;92.35
4528;BME280;62320;51.520;6.818;2023-04-22T21:22:45;100332.50;;;13.77;92.43
4528;BME280;62320;51.520;6.818;2023-04-22T21:32:46;100335.53;;;13.56;91.86
4528;BME280;62320;51.520;6.818;2023-04-22T21:42:48;100336.72;;;13.38;92.63
4528;BME280;62320;51.520;6.818;2023-04-22T21:52:50;100338.53;;;13.33;91.36
4528;BME280;62320;51.520;6.818;2023-04-22T22:02:51;100350.25;;;13.08;91.50
4528;BME280;62320;51.520;6.818;2023-04-22T22:12:53;100359.78;;;13.06;91.25
4528;BME280;62320;51.520;6.818;2023-04-22T22:22:55;100372.16;;;12.89;91.13
4528;BME280;62320;51.520;6.818;2023-04-22T22:32:56;100383.50;;;12.82;91.00
4528;BME280;62320;51.520;6.818;2023-04-22T22:42:58;100386.53;;;12.53;91.42
4528;BME280;62320;51.520;6.818;2023-04-22T22:52:59;100373.94;;;12.26;92.53
4528;BME280;62320;51.520;6.818;2023-04-22T23:03:01;100382.69;;;12.16;91.58
4528;BME280;62320;51.520;6.818;2023-04-22T23:13:03;100390.69;;;11.98;91.62
4528;BME280;62320;51.520;6.818;2023-04-22T23:23:05;100376.25;;;11.77;92.87
4528;BME280;62320;51.520;6.818;2023-04-22T23:33:08;100367.72;;;11.65;92.30
4528;BME280;62320;51.520;6.818;2023-04-22T23:43:12;100362.66;;;11.54;93.63
4528;BME280;62320;51.520;6.818;2023-04-22T23:53:14;100351.53;;;11.43;95.86
